Time;durP1;ratioP1;P1;durP2;ratioP2;P2;SDS_P1;SDS_P2;PMS_P1;PMS_P2;Temp;Humidity;BMP_temperature;BMP_pressure;BME280_temperature;BME280_humidity;BME280_pressure;Samples;Min_cycle;Max_cycle;Signal;HPM_P1;HPM_P2
2023/08/10 00:00:59;;;;;;;6.90;4.55;;;;;;;15.19;71.03;96929.19;6295464;28;20561;-68
2023/08/10 00:04:04;;;;;;;6.68;4.30;;;;;;;15.21;71.32;96932.56;6295434;28;20046;-67
2023/08/10 00:07:07;;;;;;;6.25;4.75;;;;;;;15.24;71.27;96936.78;6295076;28;20070;-69
2023/08/10 00:10:11;;;;;;;5.88;4.15;;;;;;;15.24;71.16;96931.50;6277950;28;20040;-68
2023/08/10 00:13:13;;;;;;;6.10;4.43;;;;;;;15.21;71.14;96935.22;6294153;28;20054;-68
2023/08/10 00:16:16;;;;;;;4.78;4.22;;;;;;;15.18;71.07;96935.47;6295242;28;20044;-68
2023/08/10 00:19:18;;;;;;;6.43;4.53;;;;;;;15.21;71.11;96940.53;6294570;28;20044;-68
2023/08/10 00:22:22;;;;;;;5.47;4.68;;;;;;;15.22;70.95;96934.25;6276939;28;20628;-68
2023/08/10 00:25:27;;;;;;;5.53;4.60;;;;;;;15.18;70.98;96935.47;6294863;28;20044;-68
2023/08/10 00:28:33;;;;;;;4.82;4.35;;;;;;;15.18;71.07;96932.84;6294940;28;20068;-68
2023/08/10 00:31:37;;;;;;;6.82;4.68;;;;;;;15.19;71.12;96945.09;6295170;28;20210;-68
2023/08/10 00:34:43;;;;;;;7.18;5.03;;;;;;;15.14;71.24;96942.00;6294917;28;20190;-68
2023/08/10 00:37:49;;;;;;;7.93;5.25;;;;;;;15.18;71.13;96938.13;6294482;28;20533;-68
2023/08/10 00:40:53;;;;;;;7.72;4.68;;;;;;;15.22;71.00;96941.38;6294277;28;20109;-67
2023/08/10 00:43:58;;;;;;;7.97;5.18;;;;;;;15.22;71.07;96947.50;6294529;28;20189;-68
2023/08/10 00:47:02;;;;;;;8.45;5.68;;;;;;;15.21;70.92;96948.47;6294360;28;20507;-68
2023/08/10 00:50:08;;;;;;;7.72;5.45;;;;;;;15.19;71.11;96950.41;6294292;28;20135;-68
2023/08/10 00:53:14;;;;;;;9.00;5.88;;;;;;;15.18;71.07;96954.03;6276255;28;20554;-68
2023/08/10 00:56:20;;;;;;;16.75;6.05;;;;;;;15.06;71.06;96939.16;6294359;28;20201;-68
2023/08/10 00:59:27;;;;;;;20.60;7.90;;;;;;;15.12;71.17;96959.84;6294335;28;20040;-68
2023/08/10 01:02:33;;;;;;;27.98;9.23;;;;;;;15.14;71.24;96957.88;6294032;28;20032;-69
2023/08/10 01:05:46;;;;;;;29.33;10.30;;;;;;;15.17;71.30;96960.31;6276611;28;20135;-68
2023/08/10 01:09:14;;;;;;;28.05;9.80;;;;;;;15.18;71.33;96967.28;6276248;28;20041;-68
2023/08/10 01:12:34;;;;;;;31.10;10.85;;;;;;;15.19;71.12;96970.78;6276553;28;20072;-69
2023/08/10 01:15:51;;;;;;;28.27;10.57;;;;;;;15.24;70.90;96969.44;6294096;28;20072;-69
2023/08/10 01:18:56;;;;;;;21.55;9.02;;;;;;;15.27;70.97;96979.78;6294260;28;20158;-68
2023/08/10 01:22:12;;;;;;;23.42;7.78;;;;;;;15.27;70.94;96977.13;6276593;28;20102;-67
2023/08/10 01:25:19;;;;;;;12.70;6.75;;;;;;;15.28;70.85;96980.63;6275476;28;20504;-68
2023/08/10 01:28:26;;;;;;;16.50;7.25;;;;;;;15.31;70.84;96984.84;6293759;28;20067;-68
2023/08/10 01:31:31;;;;;;;13.23;6.47;;;;;;;15.31;70.94;96983.00;6295392;28;20534;-68
2023/08/10 01:34:35;;;;;;;10.27;6.60;;;;;;;15.39;70.67;96977.09;6298972;28;20569;-68
2023/08/10 01:37:40;;;;;;;9.70;5.53;;;;;;;15.41;70.58;96967.22;6298918;28;20127;-68
2023/08/10 01:40:47;;;;;;;7.88;5.63;;;;;;;15.45;70.49;96971.28;6298816;28;20051;-68
2023/08/10 01:43:52;;;;;;;8.35;5.82;;;;;;;15.51;70.51;96970.75;6298845;28;20523;-68
2023/08/10 01:47:00;;;;;;;10.15;5.85;;;;;;;15.59;70.18;96970.97;6298503;28;20154;-68
2023/08/10 01:50:08;;;;;;;5.90;5.30;;;;;;;15.67;70.02;96973.81;6298724;28;20040;-68
2023/08/10 01:53:18;;;;;;;7.10;5.50;;;;;;;15.80;69.67;96981.63;6298659;28;20047;-68
2023/08/10 01:56:23;;;;;;;6.43;5.20;;;;;;;15.91;69.42;96980.75;6298174;28;20496;-68
2023/08/10 01:59:28;;;;;;;6.25;5.35;;;;;;;15.98;69.18;96973.09;6298390;28;20040;-68
2023/08/10 02:02:32;;;;;;;8.23;5.88;;;;;;;16.08;68.82;96974.84;6298275;28;20536;-68
2023/08/10 02:05:37;;;;;;;9.70;5.70;;;;;;;16.11;68.69;96973.72;6298171;28;20162;-68
2023/08/10 02:08:42;;;;;;;8.02;5.45;;;;;;;16.14;68.69;96979.59;6298163;28;20135;-68
2023/08/10 02:11:47;;;;;;;7.13;5.70;;;;;;;16.21;68.54;96973.75;6297907;28;20070;-68
2023/08/10 02:14:52;;;;;;;9.38;5.80;;;;;;;16.27;68.43;96975.88;6297778;28;20158;-68
2023/08/10 02:17:56;;;;;;;10.15;5.97;;;;;;;16.34;68.18;96979.72;6297664;28;20580;-69
2023/08/10 02:21:01;;;;;;;7.93;5.60;;;;;;;16.40;68.00;96984.50;6297517;28;20142;-67
2023/08/10 02:24:06;;;;;;;9.50;5.85;;;;;;;16.48;68.04;96984.66;6279981;28;20537;-68
2023/08/10 02:27:11;;;;;;;10.45;6.55;;;;;;;16.55;67.86;96987.63;6297650;28;20158;-68
2023/08/10 02:30:16;;;;;;;8.43;5.68;;;;;;;16.64;67.70;96997.44;6297660;28;20127;-68
2023/08/10 02:33:21;;;;;;;6.57;5.38;;;;;;;16.74;67.41;96986.84;6297511;28;20047;-69
2023/08/10 02:36:25;;;;;;;7.53;5.50;;;;;;;16.85;67.43;96992.09;6297157;28;20064;-69
2023/08/10 02:39:29;;;;;;;6.68;5.20;;;;;;;16.92;67.22;96995.88;6297231;28;20067;-70
2023/08/10 02:42:35;;;;;;;7.65;6.00;;;;;;;17.05;66.89;97001.78;6296654;28;20166;-68
2023/08/10 02:45:40;;;;;;;9.02;6.13;;;;;;;17.14;66.70;97004.63;6296963;28;20486;-68
2023/08/10 02:48:45;;;;;;;11.07;6.13;;;;;;;17.24;66.41;97013.47;6296966;28;20057;-68
2023/08/10 02:51:50;;;;;;;7.35;6.45;;;;;;;17.33;66.40;97015.28;6279408;28;20106;-69
2023/08/10 02:54:54;;;;;;;7.10;5.63;;;;;;;17.45;65.90;97008.84;6297047;28;20553;-69
2023/08/10 02:57:59;;;;;;;8.65;5.93;;;;;;;17.61;65.34;97012.78;6296533;28;20084;-69
2023/08/10 03:01:09;;;;;;;10.30;5.90;;;;;;;17.70;65.05;97011.94;6296595;28;20136;-68
2023/08/10 03:04:14;;;;;;;8.45;6.15;;;;;;;17.83;64.78;97017.00;6296634;28;20123;-68
2023/08/10 03:07:19;;;;;;;7.38;5.97;;;;;;;17.94;64.49;97020.34;6296758;28;20142;-68
2023/08/10 03:10:24;;;;;;;11.05;6.93;;;;;;;18.03;64.23;97024.00;6278793;28;20067;-68
2023/08/10 03:13:29;;;;;;;9.90;6.55;;;;;;;18.16;63.80;97024.53;6296421;28;20139;-68
2023/08/10 03:16:34;;;;;;;9.40;6.32;;;;;;;18.27;63.92;97026.19;6296582;28;20041;-68
2023/08/10 03:19:40;;;;;;;7.50;6.03;;;;;;;18.39;63.33;97018.88;6296216;28;20131;-68
2023/08/10 03:22:45;;;;;;;11.40;6.75;;;;;;;18.50;63.06;97026.69;6296070;28;20154;-69
2023/08/10 03:25:54;;;;;;;12.93;7.60;;;;;;;18.65;63.17;97021.72;6295930;28;20490;-69
2023/08/10 03:28:59;;;;;;;11.20;7.10;;;;;;;18.77;62.39;97025.94;6296169;28;20135;-68
2023/08/10 03:32:04;;;;;;;14.15;7.13;;;;;;;18.89;62.37;97023.91;6296030;28;20048;-68
2023/08/10 03:35:10;;;;;;;11.85;7.43;;;;;;;19.04;61.69;97030.41;6296301;28;20567;-68
2023/08/10 03:38:13;;;;;;;13.25;8.73;;;;;;;19.22;61.37;97032.28;6295895;28;20132;-68
2023/08/10 03:41:20;;;;;;;19.90;11.85;;;;;;;19.33;60.76;97028.56;6295979;28;20062;-67
2023/08/10 03:44:25;;;;;;;19.83;9.45;;;;;;;19.51;60.43;97029.44;6295786;28;20040;-68
2023/08/10 03:47:30;;;;;;;14.75;8.60;;;;;;;19.66;60.02;97032.47;6295782;28;20127;-68
2023/08/10 03:50:36;;;;;;;17.58;8.93;;;;;;;19.77;59.31;97037.56;6295808;28;20036;-68
2023/08/10 03:53:41;;;;;;;17.35;9.18;;;;;;;19.90;59.16;97029.16;6295567;28;20076;-67
2023/08/10 03:56:46;;;;;;;14.88;8.82;;;;;;;20.13;58.28;97037.53;6294877;28;20094;-69
2023/08/10 03:59:51;;;;;;;17.63;9.10;;;;;;;20.21;58.26;97039.41;6295461;28;20044;-69
2023/08/10 04:02:55;;;;;;;15.00;8.68;;;;;;;20.32;57.95;97041.84;6277646;28;20064;-68
2023/08/10 04:05:59;;;;;;;18.00;8.38;;;;;;;20.38;57.74;97041.22;6295330;28;20135;-69
2023/08/10 04:09:04;;;;;;;16.77;8.38;;;;;;;20.49;57.38;97040.94;6295126;28;20613;-69
2023/08/10 04:12:09;;;;;;;22.25;9.32;;;;;;;20.68;56.55;97044.44;6294879;28;20120;-69
2023/08/10 04:15:14;;;;;;;14.93;8.48;;;;;;;20.82;56.65;97046.53;6295216;28;20414;-69
2023/08/10 04:18:19;;;;;;;12.48;7.53;;;;;;;20.96;55.87;97045.09;6294691;28;20047;-69
2023/08/10 04:21:24;;;;;;;10.00;6.72;;;;;;;21.07;55.67;97042.97;6294640;28;20102;-69
2023/08/10 04:24:29;;;;;;;11.15;7.65;;;;;;;21.23;55.56;97041.34;6294834;28;20123;-69
2023/08/10 04:27:35;;;;;;;14.57;8.50;;;;;;;21.43;54.99;97045.47;6294630;28;20170;-70
2023/08/10 04:30:39;;;;;;;11.20;7.13;;;;;;;21.56;54.41;97041.47;6294175;28;20154;-69
2023/08/10 04:33:44;;;;;;;12.75;7.90;;;;;;;21.77;53.22;97041.84;6294760;28;20078;-69
2023/08/10 04:36:49;;;;;;;12.73;7.70;;;;;;;21.79;52.92;97030.97;6294937;28;20131;-68
2023/08/10 04:39:52;;;;;;;11.85;7.05;;;;;;;21.85;52.96;97039.16;6294254;28;20567;-70
2023/08/10 04:42:58;;;;;;;14.02;7.70;;;;;;;22.04;52.18;97038.00;6276137;28;20048;-68
2023/08/10 04:46:03;;;;;;;13.25;8.10;;;;;;;22.25;51.84;97037.56;6294117;28;20071;-69
2023/08/10 04:49:08;;;;;;;12.10;7.65;;;;;;;22.46;51.78;97033.50;6294402;28;20040;-69
2023/08/10 04:52:13;;;;;;;18.77;8.48;;;;;;;22.92;51.14;97037.22;6294215;28;20434;-68
2023/08/10 04:55:19;;;;;;;12.82;7.28;;;;;;;26.05;45.16;97040.44;6294016;28;20076;-69
2023/08/10 04:58:24;;;;;;;12.88;7.63;;;;;;;30.04;37.16;97034.97;6294101;28;20040;-69
2023/08/10 05:01:29;;;;;;;10.20;6.13;;;;;;;32.99;32.29;97036.41;6294053;28;20138;-68
2023/08/10 05:04:34;;;;;;;8.13;5.80;;;;;;;34.95;28.15;97017.13;6294178;28;20522;-67
2023/08/10 05:07:40;;;;;;;10.55;6.00;;;;;;;36.69;26.46;97027.31;6276162;28;20162;-68
2023/08/10 05:10:45;;;;;;;11.77;5.75;;;;;;;38.94;23.82;97022.59;6293708;28;20049;-68
2023/08/10 05:13:50;;;;;;;8.77;5.00;;;;;;;39.60;21.64;97022.38;6293736;28;20047;-68
2023/08/10 05:17:04;;;;;;;6.45;5.47;;;;;;;39.64;21.52;97015.22;6293988;28;20044;-68
2023/08/10 05:20:10;;;;;;;11.50;6.00;;;;;;;40.50;20.69;97020.50;6293857;28;20072;-68
2023/08/10 05:23:15;;;;;;;13.07;5.75;;;;;;;41.80;19.15;97012.22;6294062;28;20036;-67
2023/08/10 05:26:20;;;;;;;9.43;5.38;;;;;;;42.96;18.40;97019.00;6293426;28;20174;-68
2023/08/10 05:29:26;;;;;;;10.13;5.30;;;;;;;44.36;16.95;97021.34;6293771;28;20534;-68
2023/08/10 05:32:31;;;;;;;6.93;5.13;;;;;;;44.82;16.06;97017.47;6276164;28;20135;-67
2023/08/10 05:35:36;;;;;;;6.00;4.30;;;;;;;45.66;15.22;97012.91;6293665;28;20134;-67
2023/08/10 05:38:41;;;;;;;5.60;4.30;;;;;;;46.05;15.06;97008.44;6293477;28;20139;-67
2023/08/10 05:41:45;;;;;;;5.78;3.83;;;;;;;45.91;14.86;96998.28;6293418;28;20178;-67
2023/08/10 05:44:49;;;;;;;4.65;3.88;;;;;;;45.58;14.50;97008.16;6293452;28;20040;-69
2023/08/10 05:47:53;;;;;;;5.10;3.95;;;;;;;45.66;14.69;97007.38;6293350;28;20044;-69
2023/08/10 05:50:57;;;;;;;5.72;3.95;;;;;;;45.90;14.40;97002.22;6280794;28;20045;-67
2023/08/10 05:54:02;;;;;;;6.70;4.38;;;;;;;46.57;14.32;97003.69;6268321;28;20545;-69
2023/08/10 05:57:07;;;;;;;5.60;4.38;;;;;;;47.34;13.37;97006.59;6268734;28;20049;-68
2023/08/10 06:00:14;;;;;;;5.47;3.58;;;;;;;46.66;14.02;97002.84;6268619;28;20045;-69
2023/08/10 06:03:19;;;;;;;3.88;3.40;;;;;;;46.45;14.04;96988.78;6268387;28;20071;-67
2023/08/10 06:06:23;;;;;;;5.05;3.88;;;;;;;47.01;13.17;96990.47;6268514;28;20538;-68
2023/08/10 06:09:28;;;;;;;3.42;3.13;;;;;;;47.91;12.82;97005.31;6268316;28;20140;-67
2023/08/10 06:12:33;;;;;;;4.45;3.63;;;;;;;46.04;13.50;96993.72;6268682;28;20103;-67
2023/08/10 06:15:38;;;;;;;4.22;3.85;;;;;;;43.13;15.76;96985.16;6268368;28;20130;-68
2023/08/10 06:18:42;;;;;;;3.70;3.22;;;;;;;44.96;14.67;96979.31;6269823;28;20080;-70
2023/08/10 06:21:46;;;;;;;4.20;3.60;;;;;;;47.53;12.70;96983.03;6255472;28;20098;-68
2023/08/10 06:24:51;;;;;;;7.82;3.92;;;;;;;46.19;13.50;96969.31;6255067;28;20518;-67
2023/08/10 06:27:56;;;;;;;3.42;3.13;;;;;;;43.22;15.69;96958.41;6272836;28;20139;-69
2023/08/10 06:31:00;;;;;;;4.88;4.15;;;;;;;41.73;16.33;96938.00;6272457;28;20080;-69
2023/08/10 06:34:05;;;;;;;4.82;4.00;;;;;;;42.26;16.19;96949.91;6272574;28;20029;-68
2023/08/10 06:37:10;;;;;;;5.72;3.60;;;;;;;44.66;14.95;96952.34;6272585;28;20044;-68
2023/08/10 06:40:15;;;;;;;4.20;3.80;;;;;;;46.93;13.02;96960.66;6272649;28;20071;-68
2023/08/10 06:43:19;;;;;;;3.97;3.60;;;;;;;48.73;11.96;96954.50;6272191;28;20075;-69
2023/08/10 06:46:24;;;;;;;3.80;3.08;;;;;;;49.75;11.24;96951.88;6272313;28;20148;-69
2023/08/10 06:49:29;;;;;;;3.70;3.10;;;;;;;49.57;11.12;96956.88;6272530;28;20127;-69
2023/08/10 06:52:35;;;;;;;3.55;2.78;;;;;;;50.26;10.70;96955.81;6272062;28;20186;-69
2023/08/10 06:55:39;;;;;;;3.65;2.85;;;;;;;50.81;10.13;96952.50;6272538;28;20119;-69
2023/08/10 06:58:44;;;;;;;5.10;2.80;;;;;;;49.49;10.37;96944.69;6271920;28;20114;-69
2023/08/10 07:01:49;;;;;;;3.75;3.22;;;;;;;45.72;12.84;96939.34;6271741;28;20558;-68
2023/08/10 07:04:54;;;;;;;3.25;2.88;;;;;;;42.91;14.38;96918.63;6271793;28;20174;-68
2023/08/10 07:07:59;;;;;;;3.40;3.10;;;;;;;42.52;15.07;96919.88;6271659;28;20099;-69
2023/08/10 07:11:05;;;;;;;4.93;3.22;;;;;;;44.45;13.65;96922.38;6271350;28;20195;-69
2023/08/10 07:14:10;;;;;;;4.18;3.38;;;;;;;46.23;12.13;96926.63;6271496;28;20103;-69
2023/08/10 07:17:15;;;;;;;3.92;3.50;;;;;;;45.94;12.42;96918.13;6271560;28;20076;-69
2023/08/10 07:20:20;;;;;;;4.18;3.15;;;;;;;45.62;12.27;96917.44;6271443;28;20041;-69
2023/08/10 07:23:23;;;;;;;3.90;3.33;;;;;;;47.12;11.49;96918.50;6271518;28;20566;-69
2023/08/10 07:26:29;;;;;;;3.63;3.33;;;;;;;48.89;10.88;96926.72;6271143;28;20135;-69
2023/08/10 07:29:33;;;;;;;3.33;3.03;;;;;;;50.30;10.07;96917.53;6270750;28;20567;-69
2023/08/10 07:32:38;;;;;;;4.43;2.70;;;;;;;51.71;9.24;96927.50;6271218;28;20132;-69
2023/08/10 07:35:44;;;;;;;3.10;2.80;;;;;;;52.88;8.49;96940.28;6271198;28;20048;-69
2023/08/10 07:38:49;;;;;;;2.70;2.50;;;;;;;53.47;7.96;96937.25;6271163;28;20167;-69
2023/08/10 07:41:55;;;;;;;2.38;2.17;;;;;;;54.09;7.80;96936.91;6271615;28;20518;-69
2023/08/10 07:44:59;;;;;;;2.90;2.58;;;;;;;54.41;7.63;96928.84;6271091;28;20120;-69
2023/08/10 07:48:04;;;;;;;2.25;1.90;;;;;;;54.15;7.89;96932.56;6271163;28;20534;-70
2023/08/10 07:51:09;;;;;;;3.40;2.63;;;;;;;53.30;8.01;96930.13;6270857;28;20178;-69
2023/08/10 07:54:14;;;;;;;3.90;2.53;;;;;;;52.63;8.58;96919.34;6270705;28;20099;-69
2023/08/10 07:57:19;;;;;;;4.65;2.67;;;;;;;51.50;9.01;96916.59;6270862;28;20099;-69
2023/08/10 08:00:23;;;;;;;2.85;2.25;;;;;;;52.07;8.55;96915.88;6270562;28;20041;-69
2023/08/10 08:03:27;;;;;;;2.55;2.35;;;;;;;53.00;8.23;96907.53;6270717;28;20096;-68
2023/08/10 08:06:33;;;;;;;3.00;2.20;;;;;;;51.87;8.81;96914.22;6252966;28;20102;-69
2023/08/10 08:09:38;;;;;;;3.65;2.38;;;;;;;51.31;8.92;96917.34;6270426;28;20562;-70
2023/08/10 08:12:44;;;;;;;2.30;2.10;;;;;;;52.17;8.60;96911.63;6270276;28;20179;-69
2023/08/10 08:15:47;;;;;;;2.80;2.10;;;;;;;52.89;7.97;96918.63;6270179;28;20545;-69
2023/08/10 08:18:55;;;;;;;2.47;2.28;;;;;;;53.57;7.60;96911.28;6270021;28;20131;-68
2023/08/10 08:21:59;;;;;;;3.22;2.33;;;;;;;54.03;7.43;96914.72;6270011;28;20488;-70
2023/08/10 08:25:03;;;;;;;2.70;2.50;;;;;;;54.28;7.78;96909.38;6269829;28;20155;-70
2023/08/10 08:28:07;;;;;;;2.20;2.00;;;;;;;55.00;7.43;96904.47;6269914;28;20162;-69
2023/08/10 08:31:09;;;;;;;2.28;2.00;;;;;;;55.31;7.02;96908.75;6270157;28;20064;-69
2023/08/10 08:34:14;;;;;;;3.33;1.95;;;;;;;55.44;6.93;96917.72;6269968;28;20041;-70
2023/08/10 08:37:18;;;;;;;3.05;2.17;;;;;;;55.36;7.04;96921.69;6269957;28;20040;-69
2023/08/10 08:40:22;;;;;;;2.05;1.80;;;;;;;52.69;7.88;96909.47;6269657;28;20211;-69
2023/08/10 08:43:26;;;;;;;2.45;2.20;;;;;;;52.75;8.43;96902.34;6269363;28;20080;-70
2023/08/10 08:46:33;;;;;;;4.07;2.40;;;;;;;52.83;8.22;96901.28;6269735;28;20190;-70
2023/08/10 08:49:38;;;;;;;2.42;2.22;;;;;;;52.66;8.06;96887.69;6269297;28;20210;-69
2023/08/10 08:52:45;;;;;;;2.47;2.15;;;;;;;51.61;8.50;96873.59;6269227;28;20060;-69
2023/08/10 08:55:51;;;;;;;3.47;2.50;;;;;;;51.05;9.00;96879.50;6269190;28;20114;-69
2023/08/10 08:58:56;;;;;;;4.53;2.65;;;;;;;48.73;10.59;96868.75;6269198;28;20122;-70
2023/08/10 09:02:01;;;;;;;4.15;2.90;;;;;;;48.59;10.55;96865.50;6269330;28;20496;-68
2023/08/10 09:05:06;;;;;;;3.75;2.65;;;;;;;46.62;11.54;96855.13;6269314;28;20170;-70
2023/08/10 09:08:12;;;;;;;3.38;3.00;;;;;;;43.79;13.52;96846.38;6269090;28;20542;-70
2023/08/10 09:11:17;;;;;;;4.25;3.38;;;;;;;40.81;15.46;96833.47;6268757;28;20743;-69
2023/08/10 09:14:22;;;;;;;4.68;3.42;;;;;;;40.67;15.74;96838.03;6269157;28;20587;-70
2023/08/10 09:17:28;;;;;;;3.67;3.33;;;;;;;43.46;14.00;96843.81;6268712;28;20045;-71
2023/08/10 09:20:32;;;;;;;5.55;3.55;;;;;;;45.14;12.78;96840.56;6268645;28;20056;-70
2023/08/10 09:23:37;;;;;;;3.22;2.92;;;;;;;46.77;11.70;96851.84;6268756;28;20175;-71
2023/08/10 09:26:41;;;;;;;4.32;3.38;;;;;;;46.97;11.56;96843.88;6268730;28;20214;-70
2023/08/10 09:29:47;;;;;;;3.30;3.00;;;;;;;47.42;11.25;96843.25;6269053;28;20127;-70
2023/08/10 09:32:51;;;;;;;7.68;3.65;;;;;;;48.30;10.93;96844.94;6269053;28;20048;-70
2023/08/10 09:36:01;;;;;;;4.30;3.13;;;;;;;47.18;11.36;96833.59;6268976;28;20407;-71
2023/08/10 09:39:08;;;;;;;3.97;3.40;;;;;;;44.62;12.79;96826.47;6268549;28;20080;-71
2023/08/10 09:42:12;;;;;;;6.50;3.90;;;;;;;42.02;14.79;96820.94;6268504;28;20080;-70
2023/08/10 09:45:17;;;;;;;4.00;3.63;;;;;;;40.08;16.45;96812.44;6268773;28;20044;-69
2023/08/10 09:48:21;;;;;;;9.35;4.22;;;;;;;38.80;17.03;96814.09;6268658;28;20187;-69
2023/08/10 09:51:25;;;;;;;4.07;3.67;;;;;;;38.05;18.30;96814.03;6268697;28;20076;-69
2023/08/10 09:54:28;;;;;;;4.53;4.03;;;;;;;39.44;17.48;96822.59;6255312;28;20167;-70
2023/08/10 09:57:33;;;;;;;4.07;3.67;;;;;;;40.31;16.27;96816.34;6273299;28;20045;-70
2023/08/10 10:00:40;;;;;;;5.50;4.28;;;;;;;39.13;17.46;96817.25;6273294;28;20477;-70
2023/08/10 10:03:45;;;;;;;4.97;4.47;;;;;;;38.18;17.85;96813.44;6273229;28;20171;-70
2023/08/10 10:06:53;;;;;;;7.63;4.63;;;;;;;37.34;19.52;96817.56;6273310;28;20132;-70
2023/08/10 10:09:59;;;;;;;7.13;4.93;;;;;;;36.26;20.17;96809.97;6273493;28;20055;-70
2023/08/10 10:13:08;;;;;;;5.68;4.53;;;;;;;35.31;21.71;96814.13;6273204;28;20076;-69
2023/08/10 10:16:14;;;;;;;7.35;4.75;;;;;;;34.46;22.75;96820.22;6273028;28;20132;-70
2023/08/10 10:19:20;;;;;;;5.65;4.32;;;;;;;33.84;23.50;96824.75;6273705;28;20136;-70
2023/08/10 10:22:25;;;;;;;6.15;5.13;;;;;;;33.25;24.01;96821.53;6273110;28;20519;-70
2023/08/10 10:25:30;;;;;;;5.20;4.55;;;;;;;32.97;24.38;96817.72;6272705;28;20186;-69
2023/08/10 10:28:35;;;;;;;5.82;4.70;;;;;;;33.88;23.43;96814.97;6255484;28;20538;-69
2023/08/10 10:31:40;;;;;;;6.47;4.50;;;;;;;37.22;20.31;96822.47;6273192;28;20179;-70
2023/08/10 10:34:46;;;;;;;8.15;5.45;;;;;;;39.09;18.50;96827.19;6272547;28;20068;-70
2023/08/10 10:37:58;;;;;;;11.07;5.78;;;;;;;39.59;17.99;96836.25;6272353;28;20051;-70
2023/08/10 10:41:32;;;;;;;10.88;5.20;;;;;;;39.99;17.60;96834.28;6272254;28;20041;-69
2023/08/10 10:45:03;;;;;;;8.93;5.28;;;;;;;40.04;17.54;96837.00;6271435;28;20183;-70
2023/08/10 10:48:14;;;;;;;8.35;5.32;;;;;;;40.12;17.45;96828.09;6254707;28;20041;-70
2023/08/10 10:51:22;;;;;;;9.25;5.55;;;;;;;39.47;17.64;96831.09;6272234;28;20610;-70
2023/08/10 10:54:33;;;;;;;10.32;5.32;;;;;;;38.37;18.70;96823.84;6272199;28;20187;-70
2023/08/10 10:57:39;;;;;;;15.13;6.22;;;;;;;37.74;19.14;96829.69;6272566;28;20751;-70
2023/08/10 11:00:45;;;;;;;13.57;6.82;;;;;;;38.36;18.67;96831.28;6271750;28;20118;-69
2023/08/10 11:03:55;;;;;;;9.05;5.40;;;;;;;39.71;17.69;96822.91;6271255;28;20131;-70
2023/08/10 11:07:02;;;;;;;10.25;5.68;;;;;;;40.99;16.71;96824.41;6271800;28;20048;-70
2023/08/10 11:10:06;;;;;;;6.88;4.72;;;;;;;41.95;15.80;96823.25;6271515;28;20128;-70
2023/08/10 11:13:12;;;;;;;6.90;5.20;;;;;;;42.61;15.38;96835.06;6271648;28;20075;-70
2023/08/10 11:16:17;;;;;;;4.60;4.20;;;;;;;42.48;14.94;96830.34;6271757;28;20044;-69
2023/08/10 11:19:22;;;;;;;4.53;4.10;;;;;;;41.18;16.27;96821.66;6271192;28;20167;-70
2023/08/10 11:22:27;;;;;;;5.60;4.25;;;;;;;39.92;16.90;96822.78;6271445;28;20092;-69
2023/08/10 11:25:32;;;;;;;5.75;4.20;;;;;;;39.13;17.60;96819.19;6271088;28;20088;-69
2023/08/10 11:28:38;;;;;;;4.68;3.97;;;;;;;38.91;17.78;96816.84;6271214;28;20087;-69
2023/08/10 11:31:42;;;;;;;4.57;3.92;;;;;;;38.61;18.14;96810.31;6271153;28;20055;-70
2023/08/10 11:34:46;;;;;;;6.72;3.85;;;;;;;38.68;17.78;96804.53;6271291;28;20083;-70
2023/08/10 11:37:52;;;;;;;6.93;4.57;;;;;;;38.85;17.58;96805.81;6271075;28;20556;-70
2023/08/10 11:40:58;;;;;;;4.20;3.78;;;;;;;38.96;17.33;96811.31;6271183;28;20203;-70
2023/08/10 11:44:05;;;;;;;4.07;3.70;;;;;;;38.83;17.34;96813.53;6271089;28;20550;-70
2023/08/10 11:47:11;;;;;;;4.82;3.88;;;;;;;38.79;17.23;96811.63;6270973;28;20535;-71
2023/08/10 11:50:17;;;;;;;5.78;3.70;;;;;;;38.74;17.60;96812.47;6270673;28;20106;-70
2023/08/10 11:53:25;;;;;;;5.35;4.50;;;;;;;38.36;17.57;96820.28;6270675;28;20478;-71
2023/08/10 11:56:33;;;;;;;4.57;4.18;;;;;;;36.66;19.06;96814.88;6270922;28;20571;-70
2023/08/10 11:59:38;;;;;;;6.00;4.57;;;;;;;34.67;21.35;96800.28;6270357;28;20111;-71
2023/08/10 12:03:06;;;;;;;5.85;4.00;;;;;;;33.38;22.71;96804.06;6270539;28;20131;-70
2023/08/10 12:06:14;;;;;;;6.22;4.80;;;;;;;32.82;23.65;96801.09;6258805;28;20132;-70
2023/08/10 12:09:19;;;;;;;6.80;4.78;;;;;;;33.33;23.49;96796.59;6251947;28;20131;-70
2023/08/10 12:12:26;;;;;;;5.07;4.57;;;;;;;33.64;23.05;96778.06;6269972;28;20079;-71
2023/08/10 12:15:35;;;;;;;6.35;4.53;;;;;;;34.27;22.31;96801.38;6269401;28;20051;-70
2023/08/10 12:18:40;;;;;;;6.43;4.68;;;;;;;34.51;22.15;96796.53;6269917;28;20122;-71
2023/08/10 12:21:46;;;;;;;5.18;4.15;;;;;;;34.51;21.40;96801.13;6269858;28;20494;-70
2023/08/10 12:24:53;;;;;;;4.55;4.03;;;;;;;34.22;21.09;96795.84;6269534;28;20186;-71
2023/08/10 12:27:58;;;;;;;4.90;4.40;;;;;;;33.74;21.76;96797.28;6269759;28;20080;-70
2023/08/10 12:31:08;;;;;;;5.68;4.68;;;;;;;32.82;22.96;96801.91;6270150;28;20520;-70
2023/08/10 12:34:13;;;;;;;6.22;4.90;;;;;;;31.68;24.33;96796.94;6269161;28;20041;-69
2023/08/10 12:37:18;;;;;;;6.63;4.82;;;;;;;30.67;25.67;96806.75;6269399;28;20512;-70
2023/08/10 12:40:23;;;;;;;7.22;4.88;;;;;;;30.26;26.68;96800.13;6270085;28;20402;-69
2023/08/10 12:43:28;;;;;;;6.20;5.35;;;;;;;30.82;26.31;96793.63;6252018;28;20592;-70
2023/08/10 12:47:27;;;;;;;7.88;5.75;;;;;;;30.98;26.31;96794.88;6269445;28;20068;-69
2023/08/10 12:50:32;;;;;;;9.27;6.10;;;;;;;30.50;26.84;96792.16;6268918;28;20123;-69
2023/08/10 12:53:37;;;;;;;7.78;4.93;;;;;;;29.94;27.25;96789.38;6269419;28;20064;-70
2023/08/10 12:56:42;;;;;;;8.18;5.22;;;;;;;29.56;27.92;96788.69;6268997;28;20496;-70
2023/08/10 12:59:47;;;;;;;8.75;5.45;;;;;;;29.21;28.56;96794.56;6269110;28;20037;-70
2023/08/10 13:02:51;;;;;;;12.30;5.97;;;;;;;28.94;28.66;96792.00;6269248;28;20049;-71
2023/08/10 13:05:56;;;;;;;10.65;5.55;;;;;;;28.67;29.33;96795.91;6269005;28;20231;-71
2023/08/10 13:09:01;;;;;;;9.75;5.82;;;;;;;28.47;29.98;96802.22;6269059;28;20048;-69
2023/08/10 13:12:05;;;;;;;7.50;4.88;;;;;;;28.25;30.13;96798.13;6250950;28;20041;-71
2023/08/10 13:15:08;;;;;;;9.82;5.82;;;;;;;28.04;30.50;96802.75;6268642;28;20041;-69
2023/08/10 13:18:13;;;;;;;11.90;6.22;;;;;;;27.87;30.82;96791.56;6268793;28;20040;-69
2023/08/10 13:21:17;;;;;;;6.78;5.28;;;;;;;27.73;31.27;96795.28;6269008;28;20534;-69
2023/08/10 13:24:24;;;;;;;9.00;6.25;;;;;;;27.71;31.30;96800.94;6269123;28;20190;-70
2023/08/10 13:27:29;;;;;;;9.13;6.60;;;;;;;27.83;31.20;96794.88;6268218;28;20598;-70
2023/08/10 13:30:35;;;;;;;10.60;6.63;;;;;;;27.88;31.41;96797.78;6268551;28;20166;-70
2023/08/10 13:33:39;;;;;;;9.57;6.35;;;;;;;28.01;31.14;96800.47;6268897;28;20151;-69
2023/08/10 13:36:43;;;;;;;9.07;5.97;;;;;;;27.99;31.31;96805.25;6268493;28;20205;-69
2023/08/10 13:39:47;;;;;;;8.63;6.65;;;;;;;27.96;31.28;96800.28;6268567;28;20049;-69
2023/08/10 13:42:52;;;;;;;9.63;5.75;;;;;;;27.97;31.34;96804.66;6268464;28;20206;-70
2023/08/10 13:45:57;;;;;;;10.95;5.80;;;;;;;27.96;31.32;96811.09;6268225;28;20076;-69
2023/08/10 13:49:02;;;;;;;10.85;6.57;;;;;;;27.90;31.88;96809.25;6268294;28;20045;-69
2023/08/10 13:52:07;;;;;;;14.25;5.95;;;;;;;27.84;31.81;96815.50;6268096;28;20568;-69
2023/08/10 13:55:13;;;;;;;11.82;6.40;;;;;;;27.75;32.39;96820.25;6268494;28;20037;-69
2023/08/10 13:58:17;;;;;;;10.25;7.35;;;;;;;27.63;32.55;96822.75;6268837;28;20139;-69
2023/08/10 14:01:22;;;;;;;11.27;7.13;;;;;;;27.53;33.19;96827.75;6268308;28;20101;-69
2023/08/10 14:04:26;;;;;;;14.23;6.85;;;;;;;27.52;33.02;96828.78;6268294;28;20113;-69
2023/08/10 14:07:31;;;;;;;19.67;8.27;;;;;;;27.61;33.12;96830.25;6268437;28;20583;-70
2023/08/10 14:10:36;;;;;;;17.00;8.52;;;;;;;27.68;32.89;96831.06;6268159;28;20127;-69
2023/08/10 14:13:41;;;;;;;12.30;7.47;;;;;;;27.72;33.32;96832.31;6268263;28;20531;-70
2023/08/10 14:16:48;;;;;;;16.45;7.93;;;;;;;27.80;33.20;96827.75;6267975;28;20128;-69
2023/08/10 14:19:53;;;;;;;17.08;8.30;;;;;;;27.76;33.59;96838.94;6268035;28;20056;-70
2023/08/10 14:22:58;;;;;;;18.90;10.48;;;;;;;27.74;33.75;96851.00;6250584;28;20096;-69
2023/08/10 14:26:03;;;;;;;22.85;9.73;;;;;;;27.67;34.02;96845.63;6267756;28;20155;-70
2023/08/10 14:29:08;;;;;;;19.88;9.40;;;;;;;27.61;34.24;96846.47;6268078;28;20045;-70
2023/08/10 14:32:13;;;;;;;18.73;7.45;;;;;;;27.54;34.32;96843.75;6268299;28;20503;-69